createdAt,value
2018-10-17T04:33:33.180Z,14.87
2018-10-17T04:36:01.916Z,16.60
2018-10-17T04:38:30.607Z,16.87
2018-10-17T04:40:58.659Z,17.37
2018-10-17T04:43:28.624Z,16.03
2018-10-17T04:45:56.689Z,15.47
2018-10-17T04:48:26.324Z,16.70
2018-10-17T04:50:54.686Z,16.50
2018-10-17T04:53:24.751Z,17.50
2018-10-17T04:55:53.302Z,17.50
2018-10-17T04:58:21.835Z,17.60
2018-10-17T05:00:49.928Z,19.20
2018-10-17T05:03:27.641Z,18.50
2018-10-17T05:05:55.680Z,19.27
2018-10-17T05:08:23.838Z,18.10
2018-10-17T05:10:52.086Z,18.50
2018-10-17T05:13:20.412Z,20.23
2018-10-17T05:15:48.403Z,18.97
2018-10-17T05:18:16.709Z,19.17
2018-10-17T05:20:44.785Z,20.37
2018-10-17T05:23:13.161Z,19.20
2018-10-17T05:25:41.741Z,18.97
2018-10-17T05:28:09.977Z,19.60
2018-10-17T05:30:38.219Z,18.17
2018-10-17T05:33:06.830Z,19.03
2018-10-17T05:35:35.048Z,19.93
2018-10-17T05:38:03.563Z,18.97
2018-10-17T05:40:31.607Z,19.77
2018-10-17T05:43:00.428Z,18.53
2018-10-17T05:45:28.788Z,19.00
2018-10-17T05:47:57.027Z,18.83
2018-10-17T05:50:25.534Z,17.37
2018-10-17T05:52:54.113Z,18.33
2018-10-17T05:55:23.181Z,18.57
2018-10-17T05:57:51.694Z,18.27
2018-10-17T06:00:20.281Z,17.07
2018-10-17T06:02:48.931Z,17.47
2018-10-17T06:05:18.021Z,17.47
2018-10-17T06:07:53.217Z,17.47
2018-10-17T06:10:21.303Z,15.90
2018-10-17T06:12:49.261Z,17.70
2018-10-17T06:15:17.231Z,17.57
2018-10-17T06:17:45.542Z,16.13
2018-10-17T06:20:13.998Z,15.43
2018-10-17T06:22:42.014Z,16.97
2018-10-17T06:30:51.679Z,15.30
2018-10-17T06:33:19.893Z,15.90
2018-10-17T06:35:48.119Z,15.97
2018-10-17T06:38:16.087Z,15.03
2018-10-17T06:40:44.654Z,16.37
2018-10-17T06:43:13.280Z,14.50
2018-10-17T06:45:41.628Z,15.30
2018-10-17T06:48:10.138Z,14.43
2018-10-17T06:50:38.325Z,14.53
2018-10-17T06:53:06.966Z,15.13
2018-10-17T06:55:35.056Z,14.57
2018-10-17T06:58:03.775Z,14.17
2018-10-17T07:00:32.049Z,13.50
2018-10-17T07:03:00.321Z,14.13
2018-10-17T07:05:29.339Z,14.00
2018-10-17T07:07:57.758Z,14.10
2018-10-17T07:10:26.261Z,14.03
2018-10-17T07:12:54.741Z,13.90
2018-10-17T07:15:22.675Z,14.20
2018-10-17T07:17:50.975Z,13.40
2018-10-17T07:20:19.676Z,13.90
2018-10-17T07:22:47.913Z,13.20
2018-10-17T07:25:16.290Z,13.77
2018-10-17T07:27:44.883Z,13.70
2018-10-17T07:30:13.216Z,14.23
2018-10-17T07:32:41.830Z,13.10
2018-10-17T07:35:10.624Z,12.87
2018-10-17T07:37:38.953Z,14.17
2018-10-17T07:40:07.315Z,12.80
2018-10-17T07:42:35.814Z,13.50
2018-10-17T07:45:04.097Z,14.20
2018-10-17T07:47:32.269Z,13.40
2018-10-17T07:50:00.952Z,13.73
2018-10-17T07:52:29.946Z,12.60
2018-10-17T07:54:58.120Z,13.37
2018-10-17T07:57:26.225Z,13.13
2018-10-17T07:59:54.518Z,13.17
2018-10-17T08:02:22.505Z,14.50
2018-10-17T08:04:50.630Z,13.37
2018-10-17T08:07:19.077Z,14.40
2018-10-17T08:09:47.227Z,13.30
2018-10-17T08:12:15.671Z,13.20
2018-10-17T08:14:44.012Z,13.47
2018-10-17T08:17:12.375Z,13.57
2018-10-17T08:19:40.678Z,13.60
2018-10-17T08:22:08.995Z,12.97
2018-10-17T08:24:37.611Z,13.20
2018-10-17T08:27:05.751Z,13.10
2018-10-17T08:29:34.242Z,12.87
2018-10-17T08:32:02.538Z,12.80
2018-10-17T08:34:30.983Z,13.60
2018-10-17T08:36:59.893Z,12.97
2018-10-17T08:39:28.662Z,13.03
2018-10-17T08:41:56.829Z,13.37
2018-10-17T08:44:25.531Z,13.33
2018-10-17T08:46:53.873Z,13.10
2018-10-17T08:49:22.270Z,13.23
2018-10-17T08:51:50.611Z,13.43
2018-10-17T08:54:19.000Z,12.70
2018-10-17T08:56:47.421Z,12.40
2018-10-17T08:59:15.708Z,11.53
2018-10-17T09:01:44.175Z,12.83
2018-10-17T09:04:12.670Z,12.63
2018-10-17T09:06:40.952Z,12.70
2018-10-17T09:09:09.787Z,12.10
2018-10-17T09:11:38.278Z,12.83
2018-10-17T09:14:06.576Z,11.80
2018-10-17T09:16:35.122Z,12.37
2018-10-17T09:19:03.148Z,12.77
2018-10-17T09:21:31.253Z,12.07
2018-10-17T09:24:00.106Z,13.63
2018-10-17T09:26:28.153Z,13.40
2018-10-17T09:28:56.213Z,11.90
2018-10-17T09:31:24.295Z,12.70
2018-10-17T09:33:52.432Z,12.10
2018-10-17T09:36:20.732Z,12.90
2018-10-17T09:38:48.805Z,12.17
2018-10-17T09:41:17.262Z,11.80
2018-10-17T09:43:45.331Z,12.23
2018-10-17T09:46:13.633Z,11.00
2018-10-17T09:48:41.873Z,12.13
2018-10-17T09:51:09.945Z,12.23
2018-10-17T09:53:37.955Z,11.67
2018-10-17T09:56:06.214Z,11.47
2018-10-17T09:58:34.257Z,11.23
2018-10-17T10:01:07.788Z,11.23
2018-10-17T10:03:36.571Z,11.60
2018-10-17T10:06:05.134Z,11.77
2018-10-17T10:08:33.433Z,10.97
2018-10-17T10:11:01.798Z,12.00
2018-10-17T10:13:30.058Z,11.70
2018-10-17T10:15:58.966Z,11.07
2018-10-17T10:18:27.676Z,9.80
2018-10-17T10:20:55.824Z,10.70
2018-10-17T10:23:24.599Z,10.60
2018-10-17T10:25:53.245Z,11.60
2018-10-17T10:28:21.877Z,10.67
2018-10-17T10:30:50.758Z,11.47
2018-10-17T10:33:19.518Z,11.20
2018-10-17T10:35:52.560Z,11.20
2018-10-17T10:38:20.952Z,11.60
2018-10-17T10:40:49.875Z,11.17
2018-10-17T10:43:18.201Z,11.67
2018-10-17T10:45:47.450Z,10.90
2018-10-17T10:48:16.387Z,10.93
2018-10-17T10:50:45.166Z,10.80
2018-10-17T10:53:13.791Z,11.20
2018-10-17T10:55:42.090Z,9.60
2018-10-17T10:58:10.730Z,11.60
2018-10-17T11:00:39.528Z,10.73
2018-10-17T11:03:07.660Z,11.27
2018-10-17T11:05:36.590Z,11.67
2018-10-17T11:08:04.941Z,10.43
2018-10-17T11:10:33.506Z,10.23
2018-10-17T11:13:02.090Z,10.40
2018-10-17T11:15:30.770Z,10.87
2018-10-17T11:17:59.278Z,10.50
2018-10-17T11:20:27.684Z,10.37
2018-10-17T11:22:57.029Z,10.63
2018-10-17T11:25:25.937Z,9.13
2018-10-17T11:27:54.167Z,9.83
2018-10-17T11:30:22.869Z,10.90
2018-10-17T11:32:51.497Z,10.40
2018-10-17T11:35:19.848Z,9.93
2018-10-17T11:37:49.759Z,10.63
2018-10-17T11:40:18.577Z,10.40
2018-10-17T11:42:47.350Z,10.10
2018-10-17T11:45:16.446Z,11.23
2018-10-17T11:47:45.615Z,11.03
2018-10-17T11:50:14.502Z,9.77
2018-10-17T11:52:43.541Z,10.63
2018-10-17T11:55:12.791Z,9.97
2018-10-17T11:57:41.093Z,9.70
2018-10-17T12:00:10.252Z,10.50
2018-10-17T12:02:38.704Z,11.37
2018-10-17T12:05:08.341Z,9.93
2018-10-17T12:07:37.073Z,9.87
2018-10-17T12:10:07.699Z,9.87
2018-10-17T12:12:35.988Z,9.40
2018-10-17T12:15:05.714Z,10.20
2018-10-17T12:17:34.090Z,10.57
2018-10-17T12:20:02.822Z,10.50
2018-10-17T12:22:31.645Z,10.87
2018-10-17T12:25:01.070Z,9.60
2018-10-17T12:27:29.862Z,9.97
2018-10-17T12:29:58.886Z,9.70
2018-10-17T12:32:27.147Z,9.93
2018-10-17T12:34:56.907Z,10.17
2018-10-17T12:37:25.803Z,9.80
2018-10-17T12:39:54.805Z,11.47
2018-10-17T12:42:23.850Z,10.37
2018-10-17T12:44:53.596Z,10.50
2018-10-17T12:47:22.771Z,11.40
2018-10-17T12:49:52.639Z,10.20
2018-10-17T12:52:21.006Z,10.80
2018-10-17T12:54:49.843Z,9.60
2018-10-17T12:57:19.045Z,10.53
2018-10-17T12:59:48.019Z,9.00
2018-10-17T13:02:16.557Z,9.23
2018-10-17T13:04:45.533Z,9.77
2018-10-17T13:07:13.636Z,9.57
2018-10-17T13:09:42.913Z,9.90
2018-10-17T13:12:12.679Z,10.33
2018-10-17T13:14:41.775Z,9.80
2018-10-17T13:17:10.462Z,9.13
2018-10-17T13:19:42.587Z,10.10
2018-10-17T13:22:11.975Z,9.87
2018-10-17T13:24:41.304Z,9.53
2018-10-17T13:27:09.794Z,10.93
2018-10-17T13:29:38.541Z,9.23
2018-10-17T13:32:07.963Z,9.10
2018-10-17T13:34:37.373Z,9.00
2018-10-17T13:37:06.156Z,8.47
2018-10-17T13:39:35.071Z,8.67
2018-10-17T13:42:03.366Z,9.07
2018-10-17T13:44:33.041Z,10.03
2018-10-17T13:47:01.404Z,8.70
2018-10-17T13:49:29.737Z,10.07
2018-10-17T13:51:58.501Z,9.97
2018-10-17T13:54:26.815Z,9.47
2018-10-17T13:56:56.808Z,9.20
2018-10-17T13:59:27.204Z,9.87
2018-10-17T14:01:56.888Z,10.40
2018-10-17T14:04:26.125Z,9.40
2018-10-17T14:06:55.310Z,10.67
2018-10-17T14:09:24.996Z,10.67
2018-10-17T14:11:54.717Z,9.60
2018-10-17T14:14:24.543Z,9.87
2018-10-17T14:16:53.044Z,11.60
2018-10-17T14:19:22.360Z,10.50
2018-10-17T14:21:50.901Z,10.43
2018-10-17T14:24:20.153Z,10.63
2018-10-17T14:26:50.008Z,10.30
2018-10-17T14:29:18.796Z,9.57
2018-10-17T14:31:47.561Z,9.93
2018-10-17T14:34:16.196Z,10.13
2018-10-17T14:36:44.859Z,11.13
2018-10-17T14:39:13.667Z,9.40
2018-10-17T14:41:42.352Z,10.40
2018-10-17T14:44:11.363Z,9.67
2018-10-17T14:46:39.957Z,9.90
2018-10-17T14:49:08.643Z,10.50
2018-10-17T14:51:37.297Z,10.30
2018-10-17T14:54:05.765Z,9.80
2018-10-17T14:56:34.554Z,10.50
2018-10-17T14:59:02.848Z,11.60
2018-10-17T15:01:31.376Z,9.80
2018-10-17T15:04:00.062Z,10.83
2018-10-17T15:06:28.634Z,11.23
2018-10-17T15:08:57.283Z,11.23
2018-10-17T15:11:26.020Z,10.83
2018-10-17T15:13:54.694Z,10.20
2018-10-17T15:16:23.190Z,11.30
2018-10-17T15:18:51.872Z,10.00
2018-10-17T15:21:20.850Z,10.70
2018-10-17T15:23:49.564Z,9.77
2018-10-17T15:26:18.940Z,10.50
2018-10-17T15:28:48.093Z,10.90
2018-10-17T15:31:16.078Z,10.87
2018-10-17T15:33:44.053Z,11.80
2018-10-17T15:36:12.074Z,11.57
2018-10-17T15:38:40.053Z,11.27
2018-10-17T15:41:08.138Z,11.97
2018-10-17T15:43:36.273Z,10.70
2018-10-17T15:46:04.219Z,13.57
2018-10-17T15:48:32.253Z,13.80
2018-10-17T15:51:00.298Z,14.10
2018-10-17T15:53:28.322Z,13.80
2018-10-17T15:55:56.282Z,13.67
2018-10-17T15:58:24.774Z,13.80
2018-10-17T16:00:52.804Z,14.07
2018-10-17T16:03:20.807Z,13.97
2018-10-17T16:05:48.790Z,15.03
2018-10-17T16:08:16.885Z,13.43
2018-10-17T16:10:44.847Z,14.40
2018-10-17T16:13:12.840Z,13.30
2018-10-17T16:15:41.560Z,12.10
2018-10-17T16:18:11.025Z,13.43
2018-10-17T16:20:38.973Z,14.43
2018-10-17T16:23:07.183Z,13.33
2018-10-17T16:25:35.164Z,14.00
2018-10-17T16:28:03.148Z,14.17
2018-10-17T16:30:31.206Z,14.40
2018-10-17T16:32:59.183Z,14.13
2018-10-17T16:35:27.272Z,14.13
2018-10-17T16:37:55.360Z,14.23
2018-10-17T16:40:23.400Z,13.47
2018-10-17T16:42:51.450Z,13.77
2018-10-17T16:45:19.515Z,14.20
2018-10-17T16:47:47.516Z,13.40
2018-10-17T16:50:15.655Z,14.43
2018-10-17T16:52:43.548Z,15.03
2018-10-17T16:55:11.582Z,15.30
2018-10-17T16:57:39.650Z,14.43
2018-10-17T17:00:08.652Z,15.10
2018-10-17T17:02:36.673Z,14.60
2018-10-17T17:05:05.642Z,16.00
2018-10-17T17:07:33.975Z,16.20
2018-10-17T17:10:02.062Z,15.60
2018-10-17T17:12:30.465Z,15.70
2018-10-17T17:14:58.729Z,16.63
2018-10-17T17:17:27.396Z,15.37
2018-10-17T17:19:55.684Z,16.27
2018-10-17T17:22:23.731Z,15.80
2018-10-17T17:24:51.765Z,17.50
2018-10-17T17:27:20.159Z,15.80
2018-10-17T17:29:48.617Z,18.43
2018-10-17T17:32:17.067Z,17.90
2018-10-17T17:34:45.382Z,15.90
2018-10-17T17:37:13.465Z,17.33
2018-10-17T17:39:41.508Z,15.80
2018-10-17T17:42:09.583Z,16.33
2018-10-17T17:44:37.558Z,17.87
2018-10-17T17:47:05.848Z,17.97
2018-10-17T17:49:33.925Z,17.60
2018-10-17T17:52:02.086Z,17.40
2018-10-17T17:54:30.019Z,17.80
2018-10-17T17:56:58.053Z,17.57
2018-10-17T17:59:26.183Z,18.03
2018-10-17T18:01:54.208Z,18.10
2018-10-17T18:04:22.719Z,17.97
2018-10-17T18:06:50.683Z,19.50
2018-10-17T18:09:18.753Z,18.93
2018-10-17T18:11:47.064Z,18.40
2018-10-17T18:14:15.479Z,19.80
2018-10-17T18:16:43.421Z,18.00
2018-10-17T18:19:11.445Z,17.87
2018-10-17T18:21:39.719Z,17.50
2018-10-17T18:24:08.389Z,18.07
2018-10-17T18:26:37.402Z,18.33
2018-10-17T18:29:05.854Z,19.20
2018-10-17T18:31:34.654Z,18.00
2018-10-17T18:34:03.367Z,19.20
2018-10-17T18:36:32.103Z,18.97
2018-10-17T18:39:00.547Z,19.13
2018-10-17T18:41:29.209Z,19.40
2018-10-17T18:43:57.726Z,20.03
2018-10-17T18:46:26.373Z,18.80
2018-10-17T18:48:54.461Z,19.57
2018-10-17T18:51:23.025Z,18.40
2018-10-17T18:53:51.380Z,18.53
2018-10-17T18:56:21.069Z,18.40
2018-10-17T18:58:49.805Z,19.47
2018-10-17T19:01:18.462Z,19.60
2018-10-17T19:03:47.142Z,18.37
2018-10-17T19:06:16.528Z,20.70
2018-10-17T19:08:45.191Z,19.90
2018-10-17T19:11:14.378Z,20.33
2018-10-17T19:13:43.472Z,19.97
2018-10-17T19:16:14.458Z,20.07
2018-10-17T19:18:45.701Z,20.63
2018-10-17T19:26:48.937Z,20.60
2018-10-17T19:29:18.479Z,20.13
2018-10-17T19:31:49.992Z,19.97
2018-10-17T19:34:23.880Z,19.40
2018-10-17T19:36:55.004Z,21.70
2018-10-17T19:39:24.863Z,22.30
2018-10-17T19:41:57.456Z,20.60
2018-10-17T19:44:25.862Z,21.87
2018-10-17T19:46:55.034Z,19.60
2018-10-17T19:49:23.787Z,21.30
2018-10-17T19:51:52.382Z,19.07
2018-10-17T19:54:30.494Z,22.70
2018-10-17T19:56:59.626Z,23.20
2018-10-17T19:59:29.602Z,24.70
2018-10-17T20:02:03.655Z,25.10
2018-10-17T20:04:32.419Z,24.30
2018-10-17T20:07:01.149Z,27.67
2018-10-17T20:09:29.938Z,27.53
2018-10-17T20:12:00.454Z,22.10
2018-10-17T20:14:30.042Z,24.63
2018-10-17T20:16:58.762Z,24.40
2018-10-17T20:19:27.817Z,22.83
2018-10-17T20:21:56.722Z,23.77
2018-10-17T20:24:24.735Z,23.60
2018-10-17T20:26:53.639Z,23.97
2018-10-17T20:29:22.037Z,25.30
2018-10-17T20:31:51.733Z,24.97
2018-10-17T20:34:20.737Z,25.23
2018-10-17T20:36:49.995Z,25.90
2018-10-17T20:39:18.845Z,25.00
2018-10-17T20:41:47.538Z,27.60
2018-10-17T20:44:17.886Z,25.17
2018-10-17T20:46:46.597Z,26.40
2018-10-17T20:49:15.284Z,26.77
2018-10-17T20:51:44.885Z,26.40
2018-10-17T20:54:13.439Z,25.07
2018-10-17T20:56:42.489Z,28.03
2018-10-17T20:59:11.157Z,25.60
2018-10-17T21:01:49.672Z,26.63
2018-10-17T21:04:23.531Z,28.80
2018-10-17T21:06:53.363Z,27.03
2018-10-17T21:09:25.158Z,28.30
2018-10-17T21:11:53.849Z,26.20
2018-10-17T21:14:21.944Z,24.67
2018-10-17T21:16:50.104Z,25.70
2018-10-17T21:19:18.209Z,26.40
2018-10-17T21:21:46.535Z,27.57
2018-10-17T21:24:15.359Z,27.97
2018-10-17T21:26:43.584Z,27.43
2018-10-17T21:29:12.256Z,27.10
2018-10-17T21:31:40.374Z,29.80
2018-10-17T21:34:08.509Z,30.73
2018-10-17T21:36:36.908Z,27.93
2018-10-17T21:39:07.397Z,28.17
2018-10-17T21:41:35.774Z,28.40
2018-10-17T21:44:05.357Z,28.30
2018-10-17T21:46:33.703Z,27.00
2018-10-17T21:49:01.866Z,27.73
2018-10-17T21:51:29.956Z,28.37
2018-10-17T21:53:58.142Z,28.20
2018-10-17T21:56:26.370Z,27.97
2018-10-17T21:58:55.342Z,28.93
